TimeEST,TemperatureF,Dew PointF,Humidity,Sea Level PressureIn,VisibilityMPH,Wind Direction,Wind SpeedMPH,Gust SpeedMPH,PrecipitationIn,Events,Conditions,WindDirDegrees,DateUTC
12:54 AM,30.0,16.0,56,29.72,10.0,NNW,20.7,25.3,N/A,,Overcast,340,2013-02-17 05:54:00
1:54 AM,28.9,15.1,56,29.70,10.0,NNW,15.0,-,N/A,,Overcast,330,2013-02-17 06:54:00
2:54 AM,28.9,12.9,51,29.72,10.0,NW,15.0,-,N/A,,Overcast,320,2013-02-17 07:54:00
3:54 AM,28.0,12.0,51,29.70,10.0,NW,19.6,24.2,N/A,,Overcast,320,2013-02-17 08:54:00
4:54 AM,28.0,10.9,49,29.71,10.0,NW,15.0,25.3,N/A,,Overcast,320,2013-02-17 09:54:00
5:54 AM,27.0,9.0,47,29.72,10.0,NW,21.9,-,N/A,,Clear,320,2013-02-17 10:54:00
6:54 AM,27.0,7.0,43,29.74,10.0,NW,18.4,-,N/A,,Clear,320,2013-02-17 11:54:00
7:54 AM,27.0,6.1,41,29.76,10.0,NW,17.3,26.5,N/A,,Clear,320,2013-02-17 12:54:00
8:54 AM,28.9,7.0,40,29.77,10.0,NW,25.3,36.8,N/A,,Clear,320,2013-02-17 13:54:00
9:54 AM,30.0,7.0,38,29.78,10.0,NW,28.8,39.1,N/A,,Clear,320,2013-02-17 14:54:00
10:54 AM,30.9,8.1,38,29.79,10.0,NW,25.3,38.0,N/A,,Clear,310,2013-02-17 15:54:00
11:54 AM,32.0,9.0,38,29.80,10.0,WNW,21.9,33.4,N/A,,Mostly Cloudy,300,2013-02-17 16:54:00
12:54 PM,30.9,8.1,38,29.80,10.0,WNW,21.9,33.4,N/A,,Mostly Cloudy,290,2013-02-17 17:54:00
1:54 PM,30.0,8.1,40,29.81,10.0,WNW,25.3,32.2,N/A,,Mostly Cloudy,300,2013-02-17 18:54:00
2:54 PM,30.0,7.0,38,29.83,10.0,WNW,25.3,38.0,N/A,,Mostly Cloudy,300,2013-02-17 19:54:00
3:54 PM,30.0,6.1,36,29.84,10.0,NW,21.9,39.1,N/A,,Partly Cloudy,310,2013-02-17 20:54:00
4:54 PM,28.9,10.0,45,29.87,10.0,WNW,19.6,34.5,N/A,,Partly Cloudy,290,2013-02-17 21:54:00
5:54 PM,27.0,10.0,49,29.91,10.0,WNW,20.7,33.4,N/A,,Scattered Clouds,300,2013-02-17 22:54:00
6:54 PM,28.0,6.1,39,29.93,10.0,WNW,18.4,25.3,N/A,,Overcast,290,2013-02-17 23:54:00
7:54 PM,28.0,1.0,31,29.96,10.0,WNW,20.7,34.5,N/A,,Overcast,300,2013-02-18 00:54:00
8:54 PM,26.1,-0.0,32,29.99,10.0,WNW,26.5,39.1,N/A,,Partly Cloudy,300,2013-02-18 01:54:00
9:54 PM,25.0,-0.0,34,30.03,10.0,WNW,24.2,34.5,N/A,,Clear,300,2013-02-18 02:54:00
10:54 PM,24.1,-0.0,35,30.05,10.0,WNW,20.7,33.4,N/A,,Clear,300,2013-02-18 03:54:00
11:54 PM,23.0,-0.0,37,30.07,10.0,WNW,27.6,41.4,N/A,,Scattered Clouds,300,2013-02-18 04:54:00